createdAt,value
2019-05-02T00:00:34.519Z,94.65
2019-05-02T00:01:34.515Z,95.27
2019-05-02T00:02:34.516Z,94.96
2019-05-02T00:03:35.874Z,94.96
2019-05-02T00:04:35.489Z,94.23
2019-05-02T00:05:34.467Z,94.44
2019-05-02T00:06:38.087Z,94.75
2019-05-02T00:07:35.471Z,93.93
2019-05-02T00:08:34.460Z,94.44
2019-05-02T00:09:34.422Z,94.54
2019-05-02T00:10:34.415Z,94.75
2019-05-02T00:11:34.402Z,94.34
2019-05-02T00:12:34.426Z,94.13
2019-05-02T00:13:34.395Z,94.13
2019-05-02T00:14:34.370Z,94.23
2019-05-02T00:15:38.294Z,93.97
2019-05-02T00:16:34.347Z,94.03
2019-05-02T00:17:34.357Z,94.59
2019-05-02T00:18:37.192Z,93.87
2019-05-02T00:19:34.327Z,94.54
2019-05-02T00:20:34.306Z,94.38
2019-05-02T00:21:38.171Z,94.38
2019-05-02T00:22:35.298Z,94.23
2019-05-02T00:23:34.272Z,94.69
2019-05-02T00:24:39.372Z,94.59
2019-05-02T00:25:35.271Z,93.87
2019-05-02T00:26:34.247Z,93.97
2019-05-02T00:27:37.778Z,94.48
2019-05-02T00:28:34.218Z,94.22
2019-05-02T00:29:34.207Z,94.63
2019-05-02T00:30:34.749Z,95.04
2019-05-02T00:31:34.207Z,94.94
2019-05-02T00:32:34.191Z,94.73
2019-05-02T00:33:35.764Z,94.84
2019-05-02T00:34:34.155Z,95.04
2019-05-02T00:35:34.143Z,95.29
2019-05-02T00:36:34.135Z,95.19
2019-05-02T00:37:34.154Z,94.98
2019-05-02T00:38:38.543Z,95.65
2019-05-02T00:39:35.101Z,95.14
2019-05-02T00:40:34.088Z,95.29
2019-05-02T00:41:38.389Z,95.40
2019-05-02T00:42:35.088Z,95.50
2019-05-02T00:43:36.235Z,95.96
2019-05-02T00:44:34.047Z,95.65
2019-05-02T00:45:34.036Z,95.75
2019-05-02T00:46:34.922Z,95.24
2019-05-02T00:47:34.016Z,95.65
2019-05-02T00:48:34.019Z,96.48
2019-05-02T00:49:35.422Z,96.17
2019-05-02T00:50:33.985Z,96.48
2019-05-02T00:51:33.973Z,96.17
2019-05-02T00:52:36.675Z,96.58
2019-05-02T00:53:33.965Z,96.89
2019-05-02T00:54:33.941Z,96.79
2019-05-02T00:55:35.538Z,96.79
2019-05-02T00:56:33.916Z,96.37
2019-05-02T00:57:34.084Z,96.06
2019-05-02T00:58:33.913Z,96.17
2019-05-02T00:59:37.834Z,96.27
2019-05-02T01:00:34.874Z,95.86
2019-05-02T01:01:33.874Z,96.48
2019-05-02T01:02:35.949Z,95.44
2019-05-02T01:03:34.858Z,95.80
2019-05-02T01:04:33.831Z,95.80
2019-05-02T01:05:38.347Z,96.52
2019-05-02T01:06:34.806Z,96.31
2019-05-02T01:07:33.814Z,96.11
2019-05-02T01:08:35.647Z,96.11
2019-05-02T01:09:33.779Z,95.90
2019-05-02T01:10:33.766Z,96.11
2019-05-02T01:11:33.754Z,96.83
2019-05-02T01:12:33.743Z,96.42
2019-05-02T01:13:33.765Z,96.73
2019-05-02T01:14:33.730Z,96.62
2019-05-02T01:15:33.716Z,96.62
2019-05-02T01:16:33.705Z,96.21
2019-05-02T01:17:33.705Z,96.42
2019-05-02T01:18:37.290Z,96.31
2019-05-02T01:19:33.680Z,96.21
2019-05-02T01:20:33.660Z,96.31
2019-05-02T01:21:34.005Z,96.52
2019-05-02T01:22:33.639Z,96.52
2019-05-02T01:23:33.644Z,96.21
2019-05-02T01:24:34.080Z,96.21
2019-05-02T01:25:34.615Z,96.42
2019-05-02T01:26:33.592Z,96.52
2019-05-02T01:27:36.094Z,96.52
2019-05-02T01:28:34.585Z,96.62
2019-05-02T01:29:33.567Z,96.42
2019-05-02T01:30:37.281Z,96.21
2019-05-02T01:31:34.551Z,96.21
2019-05-02T01:32:33.528Z,96.31
2019-05-02T01:33:36.847Z,95.49
2019-05-02T01:34:34.505Z,95.49
2019-05-02T01:35:33.498Z,95.80
2019-05-02T01:36:36.699Z,95.34
2019-05-02T01:37:33.479Z,95.14
2019-05-02T01:38:33.794Z,95.65
2019-05-02T01:39:37.800Z,95.03
2019-05-02T01:40:34.444Z,94.93
2019-05-02T01:41:33.431Z,94.41
2019-05-02T01:42:40.115Z,94.20
2019-05-02T01:43:34.443Z,94.51
2019-05-02T01:44:36.438Z,94.41
2019-05-02T01:45:33.388Z,94.45
2019-05-02T01:46:33.379Z,94.24
2019-05-02T01:47:34.164Z,94.35
2019-05-02T01:48:33.358Z,94.62
2019-05-02T01:49:33.394Z,94.45
2019-05-02T01:50:33.669Z,94.04
2019-05-02T01:51:36.502Z,94.87
2019-05-02T01:52:33.316Z,94.14
2019-05-02T01:53:34.193Z,94.35
2019-05-02T01:54:33.313Z,95.39
2019-05-02T01:55:33.294Z,95.28
2019-05-02T01:56:34.918Z,95.39
2019-05-02T01:57:33.265Z,95.59
2019-05-02T01:58:33.249Z,95.34
2019-05-02T01:59:33.890Z,95.14
2019-05-02T02:00:33.442Z,95.03
2019-05-02T02:01:33.223Z,95.14
2019-05-02T02:02:34.117Z,94.72
2019-05-02T02:03:33.196Z,94.51
2019-05-02T02:04:33.204Z,94.62
2019-05-02T02:05:33.516Z,94.20
2019-05-02T02:06:33.167Z,94.66
2019-05-02T02:07:33.168Z,94.35
2019-05-02T02:08:33.978Z,94.72
2019-05-02T02:09:33.147Z,94.14
2019-05-02T02:10:33.123Z,94.31
2019-05-02T02:11:34.060Z,94.87
2019-05-02T02:12:33.100Z,94.56
2019-05-02T02:13:36.587Z,94.35
2019-05-02T02:14:33.104Z,94.39
2019-05-02T02:15:33.072Z,94.18
2019-05-02T02:16:35.224Z,94.70
2019-05-02T02:17:34.045Z,94.70
2019-05-02T02:18:33.040Z,94.60
2019-05-02T02:19:34.619Z,94.70
2019-05-02T02:20:34.029Z,94.49
2019-05-02T02:21:33.055Z,94.39
2019-05-02T02:22:33.765Z,94.39
2019-05-02T02:23:33.983Z,94.85
2019-05-02T02:24:33.011Z,95.26
2019-05-02T02:25:36.274Z,95.37
2019-05-02T02:26:32.996Z,95.37
2019-05-02T02:27:32.938Z,94.95
2019-05-02T02:28:33.211Z,95.31
2019-05-02T02:29:32.916Z,96.03
2019-05-02T02:30:32.925Z,95.93
2019-05-02T02:31:39.945Z,96.41
2019-05-02T02:32:33.890Z,96.41
2019-05-02T02:33:32.892Z,96.61
2019-05-02T02:34:32.883Z,96.61
2019-05-02T02:35:32.874Z,96.41
2019-05-02T02:36:34.751Z,96.36
2019-05-02T02:37:32.841Z,95.53
2019-05-02T02:38:35.100Z,95.78
2019-05-02T02:39:32.817Z,95.16
2019-05-02T02:40:33.681Z,95.22
2019-05-02T02:41:32.791Z,95.74
2019-05-02T02:42:34.157Z,95.43
2019-05-02T02:43:34.842Z,94.85
2019-05-02T02:44:33.595Z,94.43
2019-05-02T02:45:33.760Z,94.64
2019-05-02T02:46:37.868Z,95.06
2019-05-02T02:47:33.728Z,95.47
2019-05-02T02:48:34.021Z,95.37
2019-05-02T02:49:33.702Z,95.26
2019-05-02T02:50:36.517Z,95.16
2019-05-02T02:51:33.680Z,95.26
2019-05-02T02:52:37.698Z,95.16
2019-05-02T02:53:33.665Z,95.16
2019-05-02T02:54:36.587Z,95.12
2019-05-02T02:55:33.652Z,95.26
2019-05-02T02:56:34.507Z,95.32
2019-05-02T02:57:33.626Z,95.43
2019-05-02T02:58:44.144Z,95.22
2019-05-02T02:59:33.597Z,94.81
2019-05-02T03:00:32.642Z,94.39
2019-05-02T03:01:32.574Z,94.60
2019-05-02T03:02:32.572Z,94.39
2019-05-02T03:03:35.200Z,95.01
2019-05-02T03:04:32.544Z,94.18
2019-05-02T03:05:32.549Z,94.39
2019-05-02T03:06:32.524Z,94.39
2019-05-02T03:07:32.515Z,94.39
2019-05-02T03:08:32.521Z,94.49
2019-05-02T03:09:32.490Z,94.60
2019-05-02T03:10:32.502Z,94.29
2019-05-02T03:11:32.472Z,94.70
2019-05-02T03:12:36.215Z,94.70
2019-05-02T03:13:50.448Z,95.01
2019-05-02T03:14:33.443Z,95.53
2019-05-02T03:15:32.442Z,94.91
2019-05-02T03:16:32.417Z,94.39
2019-05-02T03:17:32.404Z,94.49
2019-05-02T03:18:39.787Z,94.49
2019-05-02T03:19:33.381Z,95.01
2019-05-02T03:20:39.854Z,94.60
2019-05-02T03:21:33.365Z,94.76
2019-05-02T03:22:34.677Z,94.97
2019-05-02T03:23:33.343Z,94.56
2019-05-02T03:24:36.791Z,94.66
2019-05-02T03:25:49.995Z,94.66
2019-05-02T03:26:33.320Z,94.66
2019-05-02T03:27:37.064Z,94.87
2019-05-02T03:28:33.284Z,94.56
2019-05-02T03:29:40.890Z,94.66
2019-05-02T03:30:37.313Z,94.66
2019-05-02T03:31:32.284Z,94.35
2019-05-02T03:32:35.690Z,94.56
2019-05-02T03:33:51.437Z,94.76
2019-05-02T03:34:47.215Z,94.76
2019-05-02T03:35:42.562Z,94.66
2019-05-02T03:36:36.392Z,94.35
2019-05-02T03:37:32.193Z,94.87
2019-05-02T03:38:34.972Z,94.56
2019-05-02T03:39:32.171Z,94.35
2019-05-02T03:40:38.901Z,94.87
2019-05-02T03:41:33.166Z,94.97
2019-05-02T03:42:43.896Z,94.56
2019-05-02T03:43:33.127Z,94.76
2019-05-02T03:44:32.265Z,94.76
2019-05-02T03:45:39.988Z,94.56
2019-05-02T03:46:33.110Z,94.56
2019-05-02T03:47:36.896Z,94.31
2019-05-02T03:48:33.072Z,94.51
2019-05-02T03:49:32.065Z,94.41
2019-05-02T03:50:35.082Z,94.20
2019-05-02T03:51:32.066Z,94.20
2019-05-02T03:52:36.557Z,94.51
2019-05-02T03:53:33.018Z,94.62
2019-05-02T03:54:32.010Z,94.62
2019-05-02T03:55:34.003Z,93.89
2019-05-02T03:56:32.020Z,94.10
2019-05-02T03:57:35.652Z,94.20
2019-05-02T03:58:31.965Z,94.31
2019-05-02T03:59:38.498Z,94.20
2019-05-02T04:00:32.949Z,94.62
2019-05-02T04:01:34.677Z,93.99
2019-05-02T04:02:32.938Z,94.51
2019-05-02T04:03:34.035Z,94.51
2019-05-02T04:04:32.897Z,94.57
2019-05-02T04:05:33.805Z,94.37
2019-05-02T04:06:32.894Z,94.20
2019-05-02T04:07:39.640Z,93.89
2019-05-02T04:08:32.863Z,94.06
2019-05-02T04:09:37.946Z,94.57
2019-05-02T04:10:32.834Z,94.20
2019-05-02T04:11:38.030Z,93.95
2019-05-02T04:12:33.227Z,94.37
2019-05-02T04:13:36.314Z,93.95
2019-05-02T04:14:37.782Z,94.16
2019-05-02T04:15:35.249Z,94.26
2019-05-02T04:16:31.787Z,94.06
2019-05-02T04:17:35.364Z,94.16
2019-05-02T04:18:32.747Z,93.85
2019-05-02T04:19:34.960Z,93.74
2019-05-02T04:20:31.737Z,94.06
2019-05-02T04:21:31.736Z,94.47
2019-05-02T04:22:31.712Z,94.37
2019-05-02T04:23:31.694Z,94.16
2019-05-02T04:24:31.685Z,94.26
2019-05-02T04:25:34.079Z,94.47
2019-05-02T04:26:31.676Z,94.37
2019-05-02T04:27:34.049Z,94.47
2019-05-02T04:28:31.692Z,94.68
2019-05-02T04:29:33.080Z,93.95
2019-05-02T04:30:31.631Z,94.26
2019-05-02T04:31:33.577Z,94.37
2019-05-02T04:32:31.597Z,94.37
2019-05-02T04:33:35.043Z,93.85
2019-05-02T04:34:31.576Z,94.89
2019-05-02T04:35:34.879Z,94.68
2019-05-02T04:36:31.556Z,94.26
2019-05-02T04:37:34.212Z,94.26
2019-05-02T04:38:44.608Z,94.47
2019-05-02T04:39:32.536Z,94.57
2019-05-02T04:40:40.424Z,94.32
2019-05-02T04:41:34.413Z,94.43
2019-05-02T04:42:31.507Z,94.63
2019-05-02T04:43:31.479Z,94.32
2019-05-02T04:44:41.146Z,94.43
2019-05-02T04:45:47.307Z,94.63
2019-05-02T04:46:32.450Z,94.53
2019-05-02T04:47:31.453Z,94.84
2019-05-02T04:48:34.646Z,94.43
2019-05-02T04:49:35.764Z,94.73
2019-05-02T04:50:31.406Z,94.73
2019-05-02T04:51:32.296Z,94.22
2019-05-02T04:52:31.397Z,94.22
2019-05-02T04:53:36.647Z,94.38
2019-05-02T04:54:32.836Z,94.22
2019-05-02T04:55:33.464Z,94.38
2019-05-02T04:56:31.340Z,94.18
2019-05-02T04:57:37.099Z,94.38
2019-05-02T04:58:36.504Z,94.07
2019-05-02T04:59:33.240Z,93.76
2019-05-02T05:00:31.299Z,93.87
2019-05-02T05:01:41.900Z,93.66
2019-05-02T05:02:36.747Z,94.28
2019-05-02T05:03:32.268Z,94.07
2019-05-02T05:04:33.266Z,94.48
2019-05-02T05:05:32.244Z,94.28
2019-05-02T05:06:31.232Z,94.07
2019-05-02T05:07:43.512Z,93.87
2019-05-02T05:08:32.208Z,94.38
2019-05-02T05:09:31.211Z,94.44
2019-05-02T05:10:40.348Z,94.44
2019-05-02T05:11:31.178Z,94.23
2019-05-02T05:12:32.481Z,94.03
2019-05-02T05:13:32.155Z,93.72
2019-05-02T05:14:38.068Z,93.41
2019-05-02T05:15:40.271Z,93.30
2019-05-02T05:16:32.125Z,93.41
2019-05-02T05:17:34.049Z,93.37
2019-05-02T05:18:31.102Z,93.10
2019-05-02T05:19:32.811Z,93.05
2019-05-02T05:20:31.081Z,93.37
2019-05-02T05:21:31.103Z,92.85
2019-05-02T05:22:31.079Z,92.23
2019-05-02T05:23:31.049Z,92.13
2019-05-02T05:24:32.856Z,92.13
2019-05-02T05:25:32.025Z,92.74
2019-05-02T05:26:33.759Z,92.44
2019-05-02T05:27:32.025Z,92.74
2019-05-02T05:28:35.065Z,92.54
2019-05-02T05:29:32.001Z,93.05
2019-05-02T05:30:30.972Z,92.02
2019-05-02T05:31:30.972Z,92.70
2019-05-02T05:32:30.954Z,92.19
2019-05-02T05:33:30.959Z,92.50
2019-05-02T05:34:32.803Z,92.80
2019-05-02T05:35:30.936Z,92.50
2019-05-02T05:36:33.913Z,92.70
2019-05-02T05:37:30.904Z,92.70
2019-05-02T05:38:33.362Z,92.91
2019-05-02T05:39:30.878Z,92.40
2019-05-02T05:40:32.289Z,92.08
2019-05-02T05:41:30.865Z,92.08
2019-05-02T05:42:33.283Z,92.55
2019-05-02T05:43:30.852Z,92.70
2019-05-02T05:44:32.622Z,91.94
2019-05-02T05:45:30.812Z,93.18
2019-05-02T05:46:33.319Z,92.66
2019-05-02T05:47:31.788Z,92.76
2019-05-02T05:48:32.229Z,92.76
2019-05-02T05:49:31.767Z,92.04
2019-05-02T05:50:32.296Z,92.14
2019-05-02T05:51:31.747Z,92.31
2019-05-02T05:52:33.031Z,92.51
2019-05-02T05:53:31.744Z,92.31
2019-05-02T05:54:33.038Z,92.31
2019-05-02T05:55:31.780Z,92.10
2019-05-02T05:56:32.434Z,92.21
2019-05-02T05:57:31.681Z,93.03
2019-05-02T05:58:30.703Z,93.03
2019-05-02T05:59:32.206Z,93.13
2019-05-02T06:00:30.663Z,92.10
2019-05-02T06:01:34.026Z,92.41
2019-05-02T06:02:31.630Z,91.89
2019-05-02T06:03:34.044Z,92.37
2019-05-02T06:04:33.292Z,91.96
2019-05-02T06:05:33.110Z,92.68
2019-05-02T06:06:31.583Z,92.88
2019-05-02T06:07:33.580Z,92.22
2019-05-02T06:08:31.584Z,92.12
2019-05-02T06:09:31.023Z,93.15
2019-05-02T06:10:30.543Z,92.74
2019-05-02T06:11:30.531Z,92.94
2019-05-02T06:12:35.147Z,92.33
2019-05-02T06:13:31.545Z,92.33
2019-05-02T06:14:30.523Z,92.84
2019-05-02T06:15:33.811Z,92.22
2019-05-02T06:16:31.474Z,92.84
2019-05-02T06:17:30.551Z,92.80
2019-05-02T06:18:30.486Z,92.69
2019-05-02T06:19:30.443Z,93.31
2019-05-02T06:20:31.771Z,93.01
2019-05-02T06:21:30.421Z,92.80
2019-05-02T06:22:30.413Z,93.73
2019-05-02T06:23:31.106Z,93.62
2019-05-02T06:24:33.871Z,93.68
2019-05-02T06:25:34.223Z,93.99
2019-05-02T06:26:31.371Z,92.96
2019-05-02T06:27:30.584Z,93.79
2019-05-02T06:28:30.360Z,93.99
2019-05-02T06:29:30.354Z,94.15
2019-05-02T06:30:31.040Z,93.99
2019-05-02T06:31:30.313Z,93.95
2019-05-02T06:32:30.304Z,93.23
2019-05-02T06:33:30.707Z,93.02
2019-05-02T06:34:30.280Z,92.92
2019-05-02T06:35:30.327Z,92.40
2019-05-02T06:36:32.008Z,92.50
2019-05-02T06:37:31.262Z,92.61
2019-05-02T06:38:30.238Z,92.50
2019-05-02T06:39:31.977Z,91.78
2019-05-02T06:40:30.217Z,92.30
2019-05-02T06:41:30.204Z,91.99
2019-05-02T06:42:32.703Z,91.23
2019-05-02T06:43:30.185Z,91.89
2019-05-02T06:44:30.194Z,91.53
2019-05-02T06:45:32.197Z,90.61
2019-05-02T06:46:31.152Z,90.61
2019-05-02T06:47:30.138Z,90.81
2019-05-02T06:48:30.138Z,91.53
2019-05-02T06:49:30.137Z,91.44
2019-05-02T06:50:33.431Z,91.08
2019-05-02T06:51:31.094Z,91.80
2019-05-02T06:52:32.833Z,91.91
2019-05-02T06:53:30.084Z,90.57
2019-05-02T06:54:30.095Z,91.29
2019-05-02T06:55:36.198Z,89.13
2019-05-02T06:56:31.046Z,89.03
2019-05-02T06:57:30.048Z,89.44
2019-05-02T06:58:30.020Z,89.44
2019-05-02T06:59:30.024Z,89.85
2019-05-02T07:00:38.420Z,90.26
2019-05-02T07:01:30.989Z,89.54
2019-05-02T07:02:33.513Z,90.06
2019-05-02T07:03:30.968Z,90.36
2019-05-02T07:04:29.973Z,89.44
2019-05-02T07:05:29.944Z,89.75
2019-05-02T07:06:30.255Z,88.98
2019-05-02T07:07:31.998Z,88.47
2019-05-02T07:08:31.036Z,88.47
2019-05-02T07:09:40.523Z,88.89
2019-05-02T07:10:43.907Z,88.89
2019-05-02T07:11:33.226Z,88.89
2019-05-02T07:12:30.872Z,88.37
2019-05-02T07:13:29.858Z,88.47
2019-05-02T07:14:29.862Z,87.96
2019-05-02T07:15:33.573Z,88.37
2019-05-02T07:16:38.626Z,87.82
2019-05-02T07:17:32.045Z,87.34
2019-05-02T07:18:29.807Z,87.71
2019-05-02T07:19:29.812Z,88.12
2019-05-02T07:20:29.782Z,88.02
2019-05-02T07:21:29.772Z,86.99
2019-05-02T07:22:33.084Z,88.12
2019-05-02T07:23:30.776Z,87.61
2019-05-02T07:24:30.721Z,87.30
2019-05-02T07:25:29.727Z,87.20
2019-05-02T07:26:29.719Z,87.16
2019-05-02T07:27:33.779Z,86.48
2019-05-02T07:28:30.695Z,87.05
2019-05-02T07:29:29.710Z,85.82
2019-05-02T07:30:30.071Z,85.93
2019-05-02T07:31:29.662Z,86.65
2019-05-02T07:32:29.652Z,86.68
2019-05-02T07:33:32.382Z,86.48
2019-05-02T07:34:30.651Z,86.89
2019-05-02T07:35:29.624Z,86.48
2019-05-02T07:36:31.270Z,86.89
2019-05-02T07:37:30.606Z,86.03
2019-05-02T07:38:29.796Z,85.86
2019-05-02T07:39:29.576Z,85.97
2019-05-02T07:40:29.582Z,86.03
2019-05-02T07:41:30.306Z,85.82
2019-05-02T07:42:29.563Z,85.82
2019-05-02T07:43:29.535Z,85.62
2019-05-02T07:44:32.705Z,85.27
2019-05-02T07:45:29.528Z,85.17
2019-05-02T07:46:29.500Z,85.17
2019-05-02T07:47:29.491Z,85.06
2019-05-02T07:48:29.486Z,84.55
2019-05-02T07:49:32.430Z,84.76
2019-05-02T07:50:29.471Z,84.04
2019-05-02T07:51:29.446Z,83.53
2019-05-02T07:52:33.609Z,84.25
2019-05-02T07:53:29.424Z,84.00
2019-05-02T07:54:29.414Z,84.20
2019-05-02T07:55:30.673Z,83.90
2019-05-02T07:56:30.390Z,84.00
2019-05-02T07:57:30.583Z,82.73
2019-05-02T07:58:29.368Z,82.67
2019-05-02T07:59:29.538Z,83.18
2019-05-02T08:00:32.189Z,82.42
2019-05-02T08:01:30.360Z,81.91
2019-05-02T08:02:29.334Z,82.22
2019-05-02T08:03:33.450Z,81.87
2019-05-02T08:04:30.305Z,82.08
2019-05-02T08:05:29.314Z,81.98
2019-05-02T08:06:35.391Z,81.67
2019-05-02T08:07:34.340Z,82.18
2019-05-02T08:08:29.865Z,82.08
2019-05-02T08:09:29.276Z,82.55
2019-05-02T08:10:29.260Z,82.35
2019-05-02T08:11:32.289Z,81.63
2019-05-02T08:12:30.219Z,81.63
2019-05-02T08:13:31.443Z,81.43
2019-05-02T08:14:34.235Z,81.52
2019-05-02T08:15:30.222Z,82.14
2019-05-02T08:16:29.202Z,81.52
2019-05-02T08:17:29.166Z,81.22
2019-05-02T08:18:30.444Z,81.52
2019-05-02T08:19:29.178Z,81.94
2019-05-02T08:20:29.244Z,82.04
2019-05-02T08:21:32.477Z,81.43
2019-05-02T08:22:29.143Z,81.67
2019-05-02T08:23:29.145Z,82.14
2019-05-02T08:24:33.198Z,82.59
2019-05-02T08:25:30.171Z,82.04
2019-05-02T08:26:29.100Z,83.00
2019-05-02T08:27:34.049Z,83.31
2019-05-02T08:28:30.799Z,82.76
2019-05-02T08:29:30.743Z,82.49
2019-05-02T08:30:29.090Z,82.35
2019-05-02T08:31:30.199Z,82.18
2019-05-02T08:32:29.076Z,81.73
2019-05-02T08:33:34.396Z,82.39
2019-05-02T08:34:30.020Z,82.14
2019-05-02T08:35:29.063Z,81.94
2019-05-02T08:36:29.015Z,82.24
2019-05-02T08:37:28.946Z,81.73
2019-05-02T08:38:28.941Z,82.14
2019-05-02T08:39:33.347Z,80.98
2019-05-02T08:40:28.913Z,81.70
2019-05-02T08:41:29.048Z,81.70
2019-05-02T08:42:32.505Z,80.46
2019-05-02T08:43:29.734Z,80.51
2019-05-02T08:44:28.910Z,80.51
2019-05-02T08:45:33.102Z,81.22
2019-05-02T08:46:29.866Z,81.94
2019-05-02T08:47:30.499Z,82.14
2019-05-02T08:48:28.827Z,81.12
2019-05-02T08:49:28.880Z,81.12
2019-05-02T08:50:31.911Z,81.52
2019-05-02T08:51:28.964Z,81.43
2019-05-02T08:52:28.815Z,80.51
2019-05-02T08:53:28.776Z,80.60
2019-05-02T08:54:32.789Z,82.24
2019-05-02T08:55:31.823Z,81.84
2019-05-02T08:56:29.907Z,82.35
2019-05-02T08:57:30.042Z,82.04
2019-05-02T08:58:30.256Z,82.96
2019-05-02T08:59:28.732Z,82.86
2019-05-02T09:00:32.211Z,81.22
2019-05-02T09:01:35.352Z,81.73
2019-05-02T09:02:40.849Z,82.14
2019-05-02T09:03:38.877Z,82.96
2019-05-02T09:04:30.732Z,82.24
2019-05-02T09:05:28.691Z,81.59
2019-05-02T09:06:28.793Z,81.12
2019-05-02T09:07:31.789Z,80.36
2019-05-02T09:08:29.654Z,80.05
2019-05-02T09:09:29.571Z,80.33
2019-05-02T09:10:30.282Z,80.22
2019-05-02T09:11:28.679Z,80.02
2019-05-02T09:12:28.595Z,79.50
2019-05-02T09:13:29.441Z,79.10
2019-05-02T09:14:29.258Z,79.68
2019-05-02T09:15:28.535Z,79.16
2019-05-02T09:16:30.292Z,78.96
2019-05-02T09:17:37.674Z,79.06
2019-05-02T09:18:35.014Z,78.65
2019-05-02T09:19:34.077Z,78.55
2019-05-02T09:20:29.512Z,78.86
2019-05-02T09:21:34.249Z,78.86
2019-05-02T09:22:29.497Z,78.86
2019-05-02T09:23:33.118Z,78.72
2019-05-02T09:24:32.573Z,78.52
2019-05-02T09:25:28.470Z,78.92
2019-05-02T09:26:35.995Z,79.23
2019-05-02T09:27:29.403Z,78.52
2019-05-02T09:28:28.451Z,78.61
2019-05-02T09:29:28.449Z,78.82
2019-05-02T09:30:29.295Z,78.00
2019-05-02T09:31:28.520Z,76.88
2019-05-02T09:32:28.370Z,76.67
2019-05-02T09:33:28.360Z,77.80
2019-05-02T09:34:28.365Z,78.48
2019-05-02T09:35:28.337Z,78.92
2019-05-02T09:36:28.310Z,77.25
2019-05-02T09:37:28.367Z,77.04
2019-05-02T09:38:28.336Z,76.94
2019-05-02T09:39:32.633Z,76.84
2019-05-02T09:40:29.272Z,75.51
2019-05-02T09:41:32.416Z,76.64
2019-05-02T09:42:29.372Z,77.22
2019-05-02T09:43:33.909Z,76.12
2019-05-02T09:44:29.750Z,76.03
2019-05-02T09:45:33.486Z,77.15
2019-05-02T09:46:29.234Z,77.15
2019-05-02T09:47:33.174Z,76.23
2019-05-02T09:48:29.225Z,76.57
2019-05-02T09:49:29.811Z,77.12
2019-05-02T09:50:31.365Z,77.70
2019-05-02T09:51:29.740Z,77.59
2019-05-02T09:52:34.044Z,77.70
2019-05-02T09:53:29.112Z,77.15
2019-05-02T09:54:28.146Z,76.43
2019-05-02T09:55:28.157Z,76.84
2019-05-02T09:56:28.157Z,76.60
2019-05-02T09:57:29.761Z,76.40
2019-05-02T09:58:28.074Z,77.11
2019-05-02T09:59:30.400Z,75.54
2019-05-02T10:00:32.296Z,74.87
2019-05-02T10:01:29.081Z,75.17
2019-05-02T10:02:28.359Z,74.32
2019-05-02T10:03:28.084Z,75.04
2019-05-02T10:04:28.072Z,75.54
2019-05-02T10:05:28.060Z,74.63
2019-05-02T10:06:31.370Z,75.44
2019-05-02T10:07:27.994Z,74.11
2019-05-02T10:08:27.983Z,73.71
2019-05-02T10:09:28.818Z,73.36
2019-05-02T10:10:27.975Z,72.48
2019-05-02T10:11:28.002Z,72.89
2019-05-02T10:12:28.017Z,73.81
2019-05-02T10:13:27.934Z,74.63
2019-05-02T10:14:27.945Z,75.20
2019-05-02T10:15:28.798Z,73.13
2019-05-02T10:16:27.899Z,72.52
2019-05-02T10:17:27.935Z,73.33
2019-05-02T10:18:30.226Z,72.31
2019-05-02T10:19:27.894Z,70.85
2019-05-02T10:20:31.807Z,70.92
2019-05-02T10:21:28.865Z,69.80
2019-05-02T10:22:32.308Z,70.14
2019-05-02T10:23:31.925Z,67.22
2019-05-02T10:24:28.771Z,66.55
2019-05-02T10:25:32.802Z,66.69
2019-05-02T10:26:28.772Z,65.11
2019-05-02T10:27:28.770Z,62.65
2019-05-02T10:28:27.853Z,62.15
2019-05-02T10:29:29.748Z,60.98
2019-05-02T10:30:27.740Z,59.27
2019-05-02T10:31:32.512Z,58.53
2019-05-02T10:32:28.750Z,58.96
2019-05-02T10:33:32.220Z,59.63
2019-05-02T10:34:28.221Z,60.52
2019-05-02T10:35:36.523Z,61.94
2019-05-02T10:36:28.735Z,61.98
2019-05-02T10:37:32.358Z,59.70
2019-05-02T10:38:28.824Z,58.89
2019-05-02T10:39:28.523Z,58.12
2019-05-02T10:40:28.668Z,57.89
2019-05-02T10:41:33.544Z,57.54
2019-05-02T10:42:28.611Z,57.56
2019-05-02T10:43:27.690Z,57.69
2019-05-02T10:44:32.725Z,57.76
2019-05-02T10:45:28.608Z,57.36
2019-05-02T10:46:32.060Z,58.53
2019-05-02T10:47:28.573Z,58.12
2019-05-02T10:48:28.864Z,57.49
2019-05-02T10:49:27.530Z,57.26
2019-05-02T10:50:27.557Z,56.93
2019-05-02T10:51:27.527Z,57.01
2019-05-02T10:52:29.976Z,55.46
2019-05-02T10:53:28.314Z,55.66
2019-05-02T10:54:27.900Z,55.74
2019-05-02T10:55:28.455Z,55.24
2019-05-02T10:56:28.221Z,54.43
2019-05-02T10:57:29.309Z,55.46
2019-05-02T10:58:31.916Z,56.65
2019-05-02T10:59:28.455Z,56.96
2019-05-02T11:00:27.440Z,56.32
2019-05-02T11:01:27.415Z,54.96
2019-05-02T11:02:27.423Z,55.01
2019-05-02T11:03:27.444Z,53.07
2019-05-02T11:04:29.269Z,52.64
2019-05-02T11:05:27.401Z,51.41
2019-05-02T11:06:27.326Z,53.07
2019-05-02T11:07:27.351Z,52.94
2019-05-02T11:08:27.415Z,52.92
2019-05-02T11:09:28.301Z,52.42
2019-05-02T11:10:27.334Z,52.44
2019-05-02T11:11:27.348Z,54.00
2019-05-02T11:12:40.272Z,54.28
2019-05-02T11:13:28.333Z,53.38
2019-05-02T11:14:27.261Z,52.42
2019-05-02T11:15:27.275Z,52.51
2019-05-02T11:16:27.249Z,51.97
2019-05-02T11:17:27.239Z,49.95
2019-05-02T11:18:40.283Z,49.33
2019-05-02T11:19:27.303Z,49.73
2019-05-02T11:20:27.192Z,49.22
2019-05-02T11:21:27.802Z,51.43
2019-05-02T11:22:28.147Z,53.70
2019-05-02T11:23:27.212Z,53.85
2019-05-02T11:24:27.295Z,55.69
2019-05-02T11:25:27.185Z,54.79
2019-05-02T11:26:28.184Z,55.52
2019-05-02T11:27:27.146Z,55.49
2019-05-02T11:28:27.112Z,55.21
2019-05-02T11:29:27.217Z,56.43
2019-05-02T11:30:27.085Z,54.48
2019-05-02T11:31:27.790Z,54.53
2019-05-02T11:32:27.109Z,53.83
2019-05-02T11:33:27.117Z,54.13
2019-05-02T11:34:27.791Z,53.50
2019-05-02T11:35:27.019Z,50.98
2019-05-02T11:36:27.790Z,51.08
2019-05-02T11:37:28.060Z,52.80
2019-05-02T11:38:27.561Z,54.73
2019-05-02T11:39:37.336Z,54.68
2019-05-02T11:40:28.029Z,54.51
2019-05-02T11:41:27.031Z,54.56
2019-05-02T11:42:27.418Z,54.18
2019-05-02T11:43:26.948Z,52.17
2019-05-02T11:44:26.931Z,51.36
2019-05-02T11:45:26.917Z,51.93
2019-05-02T11:46:26.950Z,52.01
2019-05-02T11:47:27.785Z,50.81
2019-05-02T11:48:26.916Z,52.22
2019-05-02T11:49:26.935Z,52.62
2019-05-02T11:50:31.973Z,51.34
2019-05-02T11:51:28.814Z,51.66
2019-05-02T11:52:27.421Z,52.69
2019-05-02T11:53:29.411Z,53.42
2019-05-02T11:54:27.806Z,55.06
2019-05-02T11:55:28.952Z,54.68
2019-05-02T11:56:26.777Z,55.19
2019-05-02T11:57:28.916Z,54.74
2019-05-02T11:58:26.803Z,55.60
2019-05-02T11:59:28.218Z,56.40
2019-05-02T12:00:26.800Z,55.80
2019-05-02T12:01:35.768Z,55.74
2019-05-02T12:02:27.768Z,55.04
2019-05-02T12:03:28.213Z,55.82
2019-05-02T12:04:26.705Z,55.29
2019-05-02T12:05:33.712Z,54.76
2019-05-02T12:06:28.288Z,54.03
2019-05-02T12:07:26.730Z,52.49
2019-05-02T12:08:26.697Z,51.76
2019-05-02T12:09:26.636Z,52.64
2019-05-02T12:10:27.908Z,49.40
2019-05-02T12:11:26.650Z,51.54
2019-05-02T12:12:27.228Z,51.71
2019-05-02T12:13:26.650Z,51.66
2019-05-02T12:14:27.414Z,50.65
2019-05-02T12:15:27.668Z,50.98
2019-05-02T12:16:26.626Z,51.89
2019-05-02T12:17:26.611Z,52.31
2019-05-02T12:18:26.598Z,53.75
2019-05-02T12:19:26.595Z,54.18
2019-05-02T12:20:28.628Z,55.32
2019-05-02T12:21:27.553Z,55.11
2019-05-02T12:22:28.318Z,53.38
2019-05-02T12:23:26.555Z,52.36
2019-05-02T12:24:26.558Z,51.64
2019-05-02T12:25:26.600Z,53.65
2019-05-02T12:26:26.457Z,54.23
2019-05-02T12:27:26.438Z,51.51
2019-05-02T12:28:26.430Z,53.20
2019-05-02T12:29:26.422Z,52.59
2019-05-02T12:30:29.006Z,52.59
2019-05-02T12:31:26.401Z,53.00
2019-05-02T12:32:26.410Z,51.16
2019-05-02T12:33:26.376Z,51.61
2019-05-02T12:34:26.362Z,52.01
2019-05-02T12:35:26.381Z,49.37
2019-05-02T12:36:26.342Z,49.12
2019-05-02T12:37:26.330Z,50.23
2019-05-02T12:38:26.320Z,49.75
2019-05-02T12:39:26.331Z,51.91
2019-05-02T12:40:26.298Z,53.55
2019-05-02T12:41:26.328Z,54.66
2019-05-02T12:42:26.572Z,53.85
2019-05-02T12:43:26.268Z,55.09
2019-05-02T12:44:26.253Z,55.32
2019-05-02T12:45:26.243Z,54.23
2019-05-02T12:46:28.477Z,55.54
2019-05-02T12:47:26.240Z,56.58
2019-05-02T12:48:26.216Z,55.87
2019-05-02T12:49:27.963Z,57.01
2019-05-02T12:50:26.190Z,57.59
2019-05-02T12:51:26.269Z,57.01
2019-05-02T12:52:26.167Z,57.21